sensor_id;sensor_type;location;lat;lon;timestamp;temperature;humidity
51815;DHT22;37874;53.158;6.766;2022-09-09T00:09:31;22.70;54.90
51815;DHT22;37874;53.158;6.766;2022-09-09T00:12:14;22.80;54.80
51815;DHT22;37874;53.158;6.766;2022-09-09T00:15:05;22.70;54.50
51815;DHT22;37874;53.158;6.766;2022-09-09T00:17:45;22.70;54.60
51815;DHT22;37874;53.158;6.766;2022-09-09T00:20:28;22.70;54.50
51815;DHT22;37874;53.158;6.766;2022-09-09T00:25:40;22.60;54.60
51815;DHT22;37874;53.158;6.766;2022-09-09T00:28:18;22.60;54.60
51815;DHT22;37874;53.158;6.766;2022-09-09T00:30:44;22.60;54.80
51815;DHT22;37874;53.158;6.766;2022-09-09T00:33:15;22.60;54.80
51815;DHT22;37874;53.158;6.766;2022-09-09T00:35:49;22.50;54.90
51815;DHT22;37874;53.158;6.766;2022-09-09T00:38:36;22.60;55.00
51815;DHT22;37874;53.158;6.766;2022-09-09T00:41:22;22.60;54.70
51815;DHT22;37874;53.158;6.766;2022-09-09T00:44:27;22.60;54.60
51815;DHT22;37874;53.158;6.766;2022-09-09T00:52:43;22.50;54.60
51815;DHT22;37874;53.158;6.766;2022-09-09T00:55:25;22.50;54.60
51815;DHT22;37874;53.158;6.766;2022-09-09T00:57:53;22.50;54.70
51815;DHT22;37874;53.158;6.766;2022-09-09T01:00:26;22.40;54.70
51815;DHT22;37874;53.158;6.766;2022-09-09T01:08:33;22.40;55.00
51815;DHT22;37874;53.158;6.766;2022-09-09T01:11:01;22.40;55.00
51815;DHT22;37874;53.158;6.766;2022-09-09T01:13:35;22.40;55.10
51815;DHT22;37874;53.158;6.766;2022-09-09T01:16:06;22.40;54.90
51815;DHT22;37874;53.158;6.766;2022-09-09T01:18:37;22.40;54.80
51815;DHT22;37874;53.158;6.766;2022-09-09T01:24:15;22.30;54.90
51815;DHT22;37874;53.158;6.766;2022-09-09T01:26:45;22.30;54.80
51815;DHT22;37874;53.158;6.766;2022-09-09T01:29:16;22.30;54.80
51815;DHT22;37874;53.158;6.766;2022-09-09T01:31:55;22.30;54.70
51815;DHT22;37874;53.158;6.766;2022-09-09T01:34:23;22.30;54.80
51815;DHT22;37874;53.158;6.766;2022-09-09T01:39:16;22.20;54.50
51815;DHT22;37874;53.158;6.766;2022-09-09T01:41:42;22.20;54.40
51815;DHT22;37874;53.158;6.766;2022-09-09T01:44:08;22.20;54.60
51815;DHT22;37874;53.158;6.766;2022-09-09T01:46:34;22.20;54.40
51815;DHT22;37874;53.158;6.766;2022-09-09T01:49:02;22.10;54.30
51815;DHT22;37874;53.158;6.766;2022-09-09T01:51:29;22.10;54.50
51815;DHT22;37874;53.158;6.766;2022-09-09T01:53:55;22.00;54.50
51815;DHT22;37874;53.158;6.766;2022-09-09T01:56:25;22.00;54.50
51815;DHT22;37874;53.158;6.766;2022-09-09T02:05:11;21.90;54.70
51815;DHT22;37874;53.158;6.766;2022-09-09T02:07:39;21.90;54.80
51815;DHT22;37874;53.158;6.766;2022-09-09T02:10:13;21.90;54.80
51815;DHT22;37874;53.158;6.766;2022-09-09T02:12:45;21.90;54.80
51815;DHT22;37874;53.158;6.766;2022-09-09T02:15:26;21.90;54.70
51815;DHT22;37874;53.158;6.766;2022-09-09T02:17:57;21.90;54.80
51815;DHT22;37874;53.158;6.766;2022-09-09T02:20:25;21.90;54.70
51815;DHT22;37874;53.158;6.766;2022-09-09T02:22:53;21.90;54.90
51815;DHT22;37874;53.158;6.766;2022-09-09T02:25:22;21.90;54.80
51815;DHT22;37874;53.158;6.766;2022-09-09T02:27:50;21.90;54.80
51815;DHT22;37874;53.158;6.766;2022-09-09T02:30:17;22.00;54.80
51815;DHT22;37874;53.158;6.766;2022-09-09T02:32:44;21.90;54.80
51815;DHT22;37874;53.158;6.766;2022-09-09T02:35:19;22.00;54.90
51815;DHT22;37874;53.158;6.766;2022-09-09T02:37:46;21.90;54.80
51815;DHT22;37874;53.158;6.766;2022-09-09T02:40:13;22.00;55.00
51815;DHT22;37874;53.158;6.766;2022-09-09T02:42:45;22.00;55.10
51815;DHT22;37874;53.158;6.766;2022-09-09T02:45:15;22.00;55.10
51815;DHT22;37874;53.158;6.766;2022-09-09T02:48:02;22.10;55.20
51815;DHT22;37874;53.158;6.766;2022-09-09T02:50:49;22.10;55.20
51815;DHT22;37874;53.158;6.766;2022-09-09T02:53:24;22.10;55.30
51815;DHT22;37874;53.158;6.766;2022-09-09T02:56:04;22.20;55.30
51815;DHT22;37874;53.158;6.766;2022-09-09T02:58:30;22.20;55.40
51815;DHT22;37874;53.158;6.766;2022-09-09T03:00:57;22.20;55.50
51815;DHT22;37874;53.158;6.766;2022-09-09T03:03:23;22.30;55.70
51815;DHT22;37874;53.158;6.766;2022-09-09T03:05:49;22.20;55.70
51815;DHT22;37874;53.158;6.766;2022-09-09T03:08:15;22.30;55.70
51815;DHT22;37874;53.158;6.766;2022-09-09T03:10:41;22.30;55.70
51815;DHT22;37874;53.158;6.766;2022-09-09T03:13:07;22.30;55.60
51815;DHT22;37874;53.158;6.766;2022-09-09T03:15:33;22.30;55.70
51815;DHT22;37874;53.158;6.766;2022-09-09T03:17:59;22.40;55.60
51815;DHT22;37874;53.158;6.766;2022-09-09T03:20:27;22.40;55.70
51815;DHT22;37874;53.158;6.766;2022-09-09T03:22:54;22.40;55.70
51815;DHT22;37874;53.158;6.766;2022-09-09T03:25:20;22.50;55.80
51815;DHT22;37874;53.158;6.766;2022-09-09T03:27:49;22.50;55.90
51815;DHT22;37874;53.158;6.766;2022-09-09T03:30:15;22.50;55.80
51815;DHT22;37874;53.158;6.766;2022-09-09T03:32:41;22.50;55.80
51815;DHT22;37874;53.158;6.766;2022-09-09T03:35:07;22.60;55.80
51815;DHT22;37874;53.158;6.766;2022-09-09T03:37:33;22.60;55.80
51815;DHT22;37874;53.158;6.766;2022-09-09T03:39:58;22.60;55.80
51815;DHT22;37874;53.158;6.766;2022-09-09T05:43:37;22.60;56.80
51815;DHT22;37874;53.158;6.766;2022-09-09T05:46:05;22.60;56.90
51815;DHT22;37874;53.158;6.766;2022-09-09T05:48:33;22.60;56.90
51815;DHT22;37874;53.158;6.766;2022-09-09T05:51:00;22.50;56.80
51815;DHT22;37874;53.158;6.766;2022-09-09T05:53:26;22.60;56.80
51815;DHT22;37874;53.158;6.766;2022-09-09T05:58:25;22.60;56.70
51815;DHT22;37874;53.158;6.766;2022-09-09T06:00:51;22.70;56.70
51815;DHT22;37874;53.158;6.766;2022-09-09T06:03:16;22.60;56.60
51815;DHT22;37874;53.158;6.766;2022-09-09T06:05:42;22.60;56.60
51815;DHT22;37874;53.158;6.766;2022-09-09T06:08:08;22.60;56.60
51815;DHT22;37874;53.158;6.766;2022-09-09T06:10:34;22.60;56.60
51815;DHT22;37874;53.158;6.766;2022-09-09T06:13:00;22.60;56.50
51815;DHT22;37874;53.158;6.766;2022-09-09T06:15:25;22.70;56.60
51815;DHT22;37874;53.158;6.766;2022-09-09T06:17:55;22.70;56.50
51815;DHT22;37874;53.158;6.766;2022-09-09T06:20:21;22.70;56.50
51815;DHT22;37874;53.158;6.766;2022-09-09T06:22:47;22.60;56.50
51815;DHT22;37874;53.158;6.766;2022-09-09T06:25:14;22.60;56.50
51815;DHT22;37874;53.158;6.766;2022-09-09T06:27:39;22.60;56.60
51815;DHT22;37874;53.158;6.766;2022-09-09T06:30:06;22.60;56.60
51815;DHT22;37874;53.158;6.766;2022-09-09T06:32:33;22.70;56.60
51815;DHT22;37874;53.158;6.766;2022-09-09T06:35:00;22.70;56.50
51815;DHT22;37874;53.158;6.766;2022-09-09T06:37:26;22.70;56.80
51815;DHT22;37874;53.158;6.766;2022-09-09T06:39:52;22.70;57.30
51815;DHT22;37874;53.158;6.766;2022-09-09T06:42:19;22.70;57.70
51815;DHT22;37874;53.158;6.766;2022-09-09T06:44:48;22.80;58.10
51815;DHT22;37874;53.158;6.766;2022-09-09T06:47:13;22.80;58.30
51815;DHT22;37874;53.158;6.766;2022-09-09T06:49:39;23.10;58.60
51815;DHT22;37874;53.158;6.766;2022-09-09T06:52:05;22.80;58.40
51815;DHT22;37874;53.158;6.766;2022-09-09T06:54:30;22.80;58.80
51815;DHT22;37874;53.158;6.766;2022-09-09T06:56:56;22.80;58.60
51815;DHT22;37874;53.158;6.766;2022-09-09T06:59:22;22.80;58.40
51815;DHT22;37874;53.158;6.766;2022-09-09T07:01:48;22.80;58.80
51815;DHT22;37874;53.158;6.766;2022-09-09T07:04:14;22.80;58.60
51815;DHT22;37874;53.158;6.766;2022-09-09T07:06:44;22.80;58.90
51815;DHT22;37874;53.158;6.766;2022-09-09T07:09:13;22.80;58.60
51815;DHT22;37874;53.158;6.766;2022-09-09T07:11:44;22.90;58.90
51815;DHT22;37874;53.158;6.766;2022-09-09T07:14:10;22.90;58.70
51815;DHT22;37874;53.158;6.766;2022-09-09T07:16:42;22.90;58.80
51815;DHT22;37874;53.158;6.766;2022-09-09T07:19:08;22.90;59.30
51815;DHT22;37874;53.158;6.766;2022-09-09T07:21:34;23.00;59.40
51815;DHT22;37874;53.158;6.766;2022-09-09T07:24:00;23.00;59.00
51815;DHT22;37874;53.158;6.766;2022-09-09T07:26:29;23.00;59.10
51815;DHT22;37874;53.158;6.766;2022-09-09T07:28:55;23.10;58.80
51815;DHT22;37874;53.158;6.766;2022-09-09T07:31:30;23.20;59.30
51815;DHT22;37874;53.158;6.766;2022-09-09T07:33:56;23.30;59.10
51815;DHT22;37874;53.158;6.766;2022-09-09T07:36:24;23.20;58.50
51815;DHT22;37874;53.158;6.766;2022-09-09T07:38:57;23.30;58.70
51815;DHT22;37874;53.158;6.766;2022-09-09T07:41:25;23.30;58.70
51815;DHT22;37874;53.158;6.766;2022-09-09T07:43:52;23.30;58.70
51815;DHT22;37874;53.158;6.766;2022-09-09T07:46:24;23.30;59.10
51815;DHT22;37874;53.158;6.766;2022-09-09T07:48:55;23.30;59.10
51815;DHT22;37874;53.158;6.766;2022-09-09T07:51:27;23.40;58.90
51815;DHT22;37874;53.158;6.766;2022-09-09T07:53:55;23.40;58.80
51815;DHT22;37874;53.158;6.766;2022-09-09T07:56:23;23.40;58.80
51815;DHT22;37874;53.158;6.766;2022-09-09T07:58:50;23.40;58.60
51815;DHT22;37874;53.158;6.766;2022-09-09T08:01:22;23.50;58.70
51815;DHT22;37874;53.158;6.766;2022-09-09T08:04:09;23.50;58.70
51815;DHT22;37874;53.158;6.766;2022-09-09T08:06:38;23.60;58.00
51815;DHT22;37874;53.158;6.766;2022-09-09T08:09:06;23.60;58.10
51815;DHT22;37874;53.158;6.766;2022-09-09T08:11:32;23.70;58.40
51815;DHT22;37874;53.158;6.766;2022-09-09T08:14:01;23.70;57.70
51815;DHT22;37874;53.158;6.766;2022-09-09T08:16:30;23.70;57.80
51815;DHT22;37874;53.158;6.766;2022-09-09T08:18:58;23.80;57.80
51815;DHT22;37874;53.158;6.766;2022-09-09T10:22:39;25.70;51.20
51815;DHT22;37874;53.158;6.766;2022-09-09T10:34:12;26.50;50.70
51815;DHT22;37874;53.158;6.766;2022-09-09T10:38:42;26.10;50.80
51815;DHT22;37874;53.158;6.766;2022-09-09T10:41:42;26.10;50.60
51815;DHT22;37874;53.158;6.766;2022-09-09T10:47:19;25.90;50.80
51815;DHT22;37874;53.158;6.766;2022-09-09T10:52:46;25.70;51.10
51815;DHT22;37874;53.158;6.766;2022-09-09T10:55:26;25.50;51.10
51815;DHT22;37874;53.158;6.766;2022-09-09T10:57:58;25.40;51.70
51815;DHT22;37874;53.158;6.766;2022-09-09T11:03:02;25.40;51.40
51815;DHT22;37874;53.158;6.766;2022-09-09T11:08:14;25.40;50.50
51815;DHT22;37874;53.158;6.766;2022-09-09T11:11:04;25.30;50.30
51815;DHT22;37874;53.158;6.766;2022-09-09T11:19:02;25.30;50.30
51815;DHT22;37874;53.158;6.766;2022-09-09T11:21:33;25.40;50.70
51815;DHT22;37874;53.158;6.766;2022-09-09T11:26:55;25.40;50.40
51815;DHT22;37874;53.158;6.766;2022-09-09T11:35:50;25.40;51.10
51815;DHT22;37874;53.158;6.766;2022-09-09T11:38:41;25.40;49.70
51815;DHT22;37874;53.158;6.766;2022-09-09T11:41:10;25.40;50.40
51815;DHT22;37874;53.158;6.766;2022-09-09T11:43:47;25.40;50.20
51815;DHT22;37874;53.158;6.766;2022-09-09T11:46:16;25.40;50.50
51815;DHT22;37874;53.158;6.766;2022-09-09T11:48:59;25.40;49.70
51815;DHT22;37874;53.158;6.766;2022-09-09T11:56:28;25.40;49.80
51815;DHT22;37874;53.158;6.766;2022-09-09T11:58:59;25.40;49.90
51815;DHT22;37874;53.158;6.766;2022-09-09T12:15:17;25.30;53.50
51815;DHT22;37874;53.158;6.766;2022-09-09T12:17:50;25.20;54.10
51815;DHT22;37874;53.158;6.766;2022-09-09T12:23:14;25.00;56.30
51815;DHT22;37874;53.158;6.766;2022-09-09T12:34:17;25.00;55.20
51815;DHT22;37874;53.158;6.766;2022-09-09T12:36:44;25.10;53.50
51815;DHT22;37874;53.158;6.766;2022-09-09T12:39:27;25.10;52.60
51815;DHT22;37874;53.158;6.766;2022-09-09T12:41:53;25.10;54.00
51815;DHT22;37874;53.158;6.766;2022-09-09T12:44:24;25.20;54.00
51815;DHT22;37874;53.158;6.766;2022-09-09T12:46:51;25.30;53.50
51815;DHT22;37874;53.158;6.766;2022-09-09T12:49:33;25.30;53.20
51815;DHT22;37874;53.158;6.766;2022-09-09T12:52:05;25.40;52.90
51815;DHT22;37874;53.158;6.766;2022-09-09T12:54:34;25.60;52.10
51815;DHT22;37874;53.158;6.766;2022-09-09T12:57:02;25.60;51.80
51815;DHT22;37874;53.158;6.766;2022-09-09T12:59:37;25.70;52.20
51815;DHT22;37874;53.158;6.766;2022-09-09T13:02:16;25.90;52.00
51815;DHT22;37874;53.158;6.766;2022-09-09T13:04:43;25.90;51.00
51815;DHT22;37874;53.158;6.766;2022-09-09T13:07:10;26.00;49.10
51815;DHT22;37874;53.158;6.766;2022-09-09T13:09:37;26.10;48.50
51815;DHT22;37874;53.158;6.766;2022-09-09T13:12:04;26.20;48.50
51815;DHT22;37874;53.158;6.766;2022-09-09T13:14:35;26.20;49.10
51815;DHT22;37874;53.158;6.766;2022-09-09T13:17:04;26.20;48.40
51815;DHT22;37874;53.158;6.766;2022-09-09T13:19:38;26.30;47.70
51815;DHT22;37874;53.158;6.766;2022-09-09T13:22:29;26.30;48.30
51815;DHT22;37874;53.158;6.766;2022-09-09T13:27:41;26.40;47.80
51815;DHT22;37874;53.158;6.766;2022-09-09T13:33:06;26.40;47.90
51815;DHT22;37874;53.158;6.766;2022-09-09T13:35:32;26.40;47.70
51815;DHT22;37874;53.158;6.766;2022-09-09T13:38:05;26.50;47.60
51815;DHT22;37874;53.158;6.766;2022-09-09T13:40:32;26.40;47.90
51815;DHT22;37874;53.158;6.766;2022-09-09T13:42:58;26.40;47.30
51815;DHT22;37874;53.158;6.766;2022-09-09T13:45:26;26.40;46.90
51815;DHT22;37874;53.158;6.766;2022-09-09T13:47:55;26.30;47.30
51815;DHT22;37874;53.158;6.766;2022-09-09T13:50:29;26.20;46.90
51815;DHT22;37874;53.158;6.766;2022-09-09T13:52:57;26.20;46.80
51815;DHT22;37874;53.158;6.766;2022-09-09T13:55:27;26.20;48.90
51815;DHT22;37874;53.158;6.766;2022-09-09T13:58:00;26.30;50.10
51815;DHT22;37874;53.158;6.766;2022-09-09T14:00:29;26.30;49.40
51815;DHT22;37874;53.158;6.766;2022-09-09T14:02:55;26.20;50.10
51815;DHT22;37874;53.158;6.766;2022-09-09T14:05:21;25.90;50.20
51815;DHT22;37874;53.158;6.766;2022-09-09T14:07:48;25.70;51.20
51815;DHT22;37874;53.158;6.766;2022-09-09T14:10:15;25.40;51.60
51815;DHT22;37874;53.158;6.766;2022-09-09T14:12:40;25.20;51.60
51815;DHT22;37874;53.158;6.766;2022-09-09T14:15:07;25.00;52.80
51815;DHT22;37874;53.158;6.766;2022-09-09T14:17:34;24.90;52.90
51815;DHT22;37874;53.158;6.766;2022-09-09T14:20:03;24.90;53.70
51815;DHT22;37874;53.158;6.766;2022-09-09T14:22:33;24.90;54.90
51815;DHT22;37874;53.158;6.766;2022-09-09T14:24:59;25.00;54.90
51815;DHT22;37874;53.158;6.766;2022-09-09T14:27:24;25.20;53.60
51815;DHT22;37874;53.158;6.766;2022-09-09T14:29:52;25.30;53.30
51815;DHT22;37874;53.158;6.766;2022-09-09T14:32:18;25.40;52.50
51815;DHT22;37874;53.158;6.766;2022-09-09T14:34:44;25.50;51.30
51815;DHT22;37874;53.158;6.766;2022-09-09T14:37:10;25.60;51.10
51815;DHT22;37874;53.158;6.766;2022-09-09T14:39:35;25.50;51.70
51815;DHT22;37874;53.158;6.766;2022-09-09T14:42:01;25.50;51.10
51815;DHT22;37874;53.158;6.766;2022-09-09T14:44:28;25.50;51.50
51815;DHT22;37874;53.158;6.766;2022-09-09T14:46:53;25.50;53.00
51815;DHT22;37874;53.158;6.766;2022-09-09T14:49:19;25.50;52.70
51815;DHT22;37874;53.158;6.766;2022-09-09T14:51:45;25.50;53.90
51815;DHT22;37874;53.158;6.766;2022-09-09T14:54:11;25.40;54.50
51815;DHT22;37874;53.158;6.766;2022-09-09T14:56:37;25.30;53.90
51815;DHT22;37874;53.158;6.766;2022-09-09T14:59:03;25.30;56.60
51815;DHT22;37874;53.158;6.766;2022-09-09T15:01:31;25.20;56.60
51815;DHT22;37874;53.158;6.766;2022-09-09T15:03:59;25.20;56.70
51815;DHT22;37874;53.158;6.766;2022-09-09T15:06:29;25.20;56.60
51815;DHT22;37874;53.158;6.766;2022-09-09T15:08:56;25.30;55.20
51815;DHT22;37874;53.158;6.766;2022-09-09T15:11:24;25.40;54.70
51815;DHT22;37874;53.158;6.766;2022-09-09T15:13:51;25.40;54.00
51815;DHT22;37874;53.158;6.766;2022-09-09T15:16:19;25.10;53.90
51815;DHT22;37874;53.158;6.766;2022-09-09T15:18:46;25.50;53.80
51815;DHT22;37874;53.158;6.766;2022-09-09T15:21:17;25.60;53.40
51815;DHT22;37874;53.158;6.766;2022-09-09T15:23:44;25.90;52.00
51815;DHT22;37874;53.158;6.766;2022-09-09T15:26:11;26.00;50.80
51815;DHT22;37874;53.158;6.766;2022-09-09T15:28:39;26.20;50.70
51815;DHT22;37874;53.158;6.766;2022-09-09T15:31:16;26.30;50.40
51815;DHT22;37874;53.158;6.766;2022-09-09T15:33:53;26.40;50.20
51815;DHT22;37874;53.158;6.766;2022-09-09T15:36:21;26.50;49.80
51815;DHT22;37874;53.158;6.766;2022-09-09T15:38:47;26.60;49.20
51815;DHT22;37874;53.158;6.766;2022-09-09T15:41:14;26.60;48.70
51815;DHT22;37874;53.158;6.766;2022-09-09T15:43:44;26.60;49.20
51815;DHT22;37874;53.158;6.766;2022-09-09T15:46:34;26.60;49.60
51815;DHT22;37874;53.158;6.766;2022-09-09T15:49:05;26.70;49.40
51815;DHT22;37874;53.158;6.766;2022-09-09T15:51:31;26.80;49.10
51815;DHT22;37874;53.158;6.766;2022-09-09T15:53:58;26.90;50.00
51815;DHT22;37874;53.158;6.766;2022-09-09T15:56:28;26.80;49.40
51815;DHT22;37874;53.158;6.766;2022-09-09T15:58:59;26.60;49.90
51815;DHT22;37874;53.158;6.766;2022-09-09T16:01:26;26.40;50.40
51815;DHT22;37874;53.158;6.766;2022-09-09T16:03:52;26.20;50.90
51815;DHT22;37874;53.158;6.766;2022-09-09T16:06:20;26.00;51.50
51815;DHT22;37874;53.158;6.766;2022-09-09T16:08:48;25.90;51.90
51815;DHT22;37874;53.158;6.766;2022-09-09T16:13:50;25.60;52.00
51815;DHT22;37874;53.158;6.766;2022-09-09T16:16:18;25.50;52.20
51815;DHT22;37874;53.158;6.766;2022-09-09T16:18:49;25.40;52.30
51815;DHT22;37874;53.158;6.766;2022-09-09T16:21:28;25.40;52.50
51815;DHT22;37874;53.158;6.766;2022-09-09T16:23:55;25.30;52.00
51815;DHT22;37874;53.158;6.766;2022-09-09T16:26:22;25.30;52.40
51815;DHT22;37874;53.158;6.766;2022-09-09T16:28:48;25.30;52.10
51815;DHT22;37874;53.158;6.766;2022-09-09T16:31:23;25.30;52.10
51815;DHT22;37874;53.158;6.766;2022-09-09T16:33:50;25.40;51.60
51815;DHT22;37874;53.158;6.766;2022-09-09T16:36:19;25.40;51.80
51815;DHT22;37874;53.158;6.766;2022-09-09T16:38:45;25.40;52.30
51815;DHT22;37874;53.158;6.766;2022-09-09T16:41:12;25.30;52.70
51815;DHT22;37874;53.158;6.766;2022-09-09T16:43:38;25.30;52.40
51815;DHT22;37874;53.158;6.766;2022-09-09T16:46:15;25.20;53.00
51815;DHT22;37874;53.158;6.766;2022-09-09T16:48:42;25.20;53.00
51815;DHT22;37874;53.158;6.766;2022-09-09T16:53:40;25.10;53.10
51815;DHT22;37874;53.158;6.766;2022-09-09T16:56:10;25.00;53.30
51815;DHT22;37874;53.158;6.766;2022-09-09T16:58:35;24.90;53.60
51815;DHT22;37874;53.158;6.766;2022-09-09T17:01:03;24.80;53.80
51815;DHT22;37874;53.158;6.766;2022-09-09T17:03:29;24.80;54.00
51815;DHT22;37874;53.158;6.766;2022-09-09T17:05:56;24.70;54.10
51815;DHT22;37874;53.158;6.766;2022-09-09T17:08:24;24.60;54.10
51815;DHT22;37874;53.158;6.766;2022-09-09T17:10:49;24.50;54.10
51815;DHT22;37874;53.158;6.766;2022-09-09T17:13:15;24.50;54.20
51815;DHT22;37874;53.158;6.766;2022-09-09T17:15:43;24.50;54.30
51815;DHT22;37874;53.158;6.766;2022-09-09T17:18:10;24.40;54.30
51815;DHT22;37874;53.158;6.766;2022-09-09T17:20:40;24.40;54.50
51815;DHT22;37874;53.158;6.766;2022-09-09T17:23:07;24.40;54.50
51815;DHT22;37874;53.158;6.766;2022-09-09T17:25:33;24.40;54.70
51815;DHT22;37874;53.158;6.766;2022-09-09T17:27:59;24.30;54.70
51815;DHT22;37874;53.158;6.766;2022-09-09T17:30:26;24.20;54.70
51815;DHT22;37874;53.158;6.766;2022-09-09T17:32:52;24.20;54.90
51815;DHT22;37874;53.158;6.766;2022-09-09T17:35:18;24.20;55.10
51815;DHT22;37874;53.158;6.766;2022-09-09T17:37:44;24.20;54.90
51815;DHT22;37874;53.158;6.766;2022-09-09T17:40:11;24.20;55.00
51815;DHT22;37874;53.158;6.766;2022-09-09T17:42:36;24.20;55.10
51815;DHT22;37874;53.158;6.766;2022-09-09T17:45:03;24.20;55.20
51815;DHT22;37874;53.158;6.766;2022-09-09T17:47:28;24.10;55.30
51815;DHT22;37874;53.158;6.766;2022-09-09T17:49:56;24.10;55.30
51815;DHT22;37874;53.158;6.766;2022-09-09T17:52:21;24.00;55.50
51815;DHT22;37874;53.158;6.766;2022-09-09T17:54:48;24.00;55.70
51815;DHT22;37874;53.158;6.766;2022-09-09T17:57:17;24.00;55.80
51815;DHT22;37874;53.158;6.766;2022-09-09T17:59:44;24.00;55.90
51815;DHT22;37874;53.158;6.766;2022-09-09T18:02:13;24.00;56.00
51815;DHT22;37874;53.158;6.766;2022-09-09T18:04:38;24.10;55.70
51815;DHT22;37874;53.158;6.766;2022-09-09T18:07:04;24.30;55.10
51815;DHT22;37874;53.158;6.766;2022-09-09T18:09:30;24.40;54.60
51815;DHT22;37874;53.158;6.766;2022-09-09T18:11:58;24.60;54.00
51815;DHT22;37874;53.158;6.766;2022-09-09T18:14:29;24.70;53.50
51815;DHT22;37874;53.158;6.766;2022-09-09T18:16:59;24.80;53.20
51815;DHT22;37874;53.158;6.766;2022-09-09T18:19:28;24.90;52.70
51815;DHT22;37874;53.158;6.766;2022-09-09T18:21:55;25.00;52.70
51815;DHT22;37874;53.158;6.766;2022-09-09T18:24:21;25.00;52.60
51815;DHT22;37874;53.158;6.766;2022-09-09T18:26:49;25.00;52.40
51815;DHT22;37874;53.158;6.766;2022-09-09T18:29:20;25.00;52.50
51815;DHT22;37874;53.158;6.766;2022-09-09T18:31:48;24.90;52.50
51815;DHT22;37874;53.158;6.766;2022-09-09T18:34:16;24.60;52.40
51815;DHT22;37874;53.158;6.766;2022-09-09T18:36:44;24.80;52.80
51815;DHT22;37874;53.158;6.766;2022-09-09T18:39:12;24.80;52.80
51815;DHT22;37874;53.158;6.766;2022-09-09T18:41:49;24.80;52.90
51815;DHT22;37874;53.158;6.766;2022-09-09T18:44:19;24.80;52.70
51815;DHT22;37874;53.158;6.766;2022-09-09T18:46:46;24.80;52.90
51815;DHT22;37874;53.158;6.766;2022-09-09T18:49:13;24.80;52.70
51815;DHT22;37874;53.158;6.766;2022-09-09T18:51:41;24.70;52.70
51815;DHT22;37874;53.158;6.766;2022-09-09T18:54:12;24.70;52.80
51815;DHT22;37874;53.158;6.766;2022-09-09T18:56:38;24.70;52.80
51815;DHT22;37874;53.158;6.766;2022-09-09T18:59:05;24.80;52.80
51815;DHT22;37874;53.158;6.766;2022-09-09T19:01:32;24.70;52.60
51815;DHT22;37874;53.158;6.766;2022-09-09T19:04:00;24.70;52.70
51815;DHT22;37874;53.158;6.766;2022-09-09T19:06:29;24.80;52.40
51815;DHT22;37874;53.158;6.766;2022-09-09T19:08:58;24.80;52.50
51815;DHT22;37874;53.158;6.766;2022-09-09T19:11:25;24.80;52.20
51815;DHT22;37874;53.158;6.766;2022-09-09T19:14:00;24.80;52.30
51815;DHT22;37874;53.158;6.766;2022-09-09T19:16:29;24.80;52.70
51815;DHT22;37874;53.158;6.766;2022-09-09T19:18:59;24.80;52.90
51815;DHT22;37874;53.158;6.766;2022-09-09T19:21:27;24.70;53.40
51815;DHT22;37874;53.158;6.766;2022-09-09T19:23:56;24.70;54.40
51815;DHT22;37874;53.158;6.766;2022-09-09T19:26:30;24.70;54.10
51815;DHT22;37874;53.158;6.766;2022-09-09T19:28:57;24.60;54.50
51815;DHT22;37874;53.158;6.766;2022-09-09T19:31:24;24.70;54.80
51815;DHT22;37874;53.158;6.766;2022-09-09T19:33:53;24.60;55.10
51815;DHT22;37874;53.158;6.766;2022-09-09T19:36:20;24.60;55.10
51815;DHT22;37874;53.158;6.766;2022-09-09T19:38:46;24.60;55.50
51815;DHT22;37874;53.158;6.766;2022-09-09T19:41:18;24.50;55.30
51815;DHT22;37874;53.158;6.766;2022-09-09T19:43:44;24.50;55.30
51815;DHT22;37874;53.158;6.766;2022-09-09T19:46:13;24.40;55.40
51815;DHT22;37874;53.158;6.766;2022-09-09T19:48:41;24.50;55.60
51815;DHT22;37874;53.158;6.766;2022-09-09T19:51:10;24.40;55.70
51815;DHT22;37874;53.158;6.766;2022-09-09T19:53:39;24.40;55.80
51815;DHT22;37874;53.158;6.766;2022-09-09T19:56:05;24.40;55.90
51815;DHT22;37874;53.158;6.766;2022-09-09T19:58:36;24.30;56.00
51815;DHT22;37874;53.158;6.766;2022-09-09T20:03:34;24.20;56.10
51815;DHT22;37874;53.158;6.766;2022-09-09T20:06:00;24.20;56.00
51815;DHT22;37874;53.158;6.766;2022-09-09T20:08:26;24.20;56.40
51815;DHT22;37874;53.158;6.766;2022-09-09T20:10:52;24.20;56.40
51815;DHT22;37874;53.158;6.766;2022-09-09T20:13:18;24.20;56.40
51815;DHT22;37874;53.158;6.766;2022-09-09T20:15:46;24.20;56.30
51815;DHT22;37874;53.158;6.766;2022-09-09T20:18:19;24.20;56.50
51815;DHT22;37874;53.158;6.766;2022-09-09T20:20:45;24.20;56.70
51815;DHT22;37874;53.158;6.766;2022-09-09T20:23:11;24.10;56.60
51815;DHT22;37874;53.158;6.766;2022-09-09T20:25:37;24.10;56.50
51815;DHT22;37874;53.158;6.766;2022-09-09T20:28:03;24.10;56.60
51815;DHT22;37874;53.158;6.766;2022-09-09T20:30:28;24.10;56.50
51815;DHT22;37874;53.158;6.766;2022-09-09T20:32:54;24.10;56.50
51815;DHT22;37874;53.158;6.766;2022-09-09T20:35:19;24.10;56.60
51815;DHT22;37874;53.158;6.766;2022-09-09T20:37:45;24.10;56.50
51815;DHT22;37874;53.158;6.766;2022-09-09T20:40:11;24.10;56.50
51815;DHT22;37874;53.158;6.766;2022-09-09T20:42:36;24.10;56.40
51815;DHT22;37874;53.158;6.766;2022-09-09T20:45:03;24.10;56.50
51815;DHT22;37874;53.158;6.766;2022-09-09T20:47:28;24.10;56.60
51815;DHT22;37874;53.158;6.766;2022-09-09T20:49:54;24.10;56.50
51815;DHT22;37874;53.158;6.766;2022-09-09T20:52:20;24.00;57.10
51815;DHT22;37874;53.158;6.766;2022-09-09T20:54:47;24.00;56.50
51815;DHT22;37874;53.158;6.766;2022-09-09T20:57:12;24.00;56.40
51815;DHT22;37874;53.158;6.766;2022-09-09T20:59:41;24.10;56.40
51815;DHT22;37874;53.158;6.766;2022-09-09T21:02:08;24.10;56.30
51815;DHT22;37874;53.158;6.766;2022-09-09T21:04:35;24.10;56.30
51815;DHT22;37874;53.158;6.766;2022-09-09T21:07:02;24.10;56.00
51815;DHT22;37874;53.158;6.766;2022-09-09T21:09:28;24.00;55.90
51815;DHT22;37874;53.158;6.766;2022-09-09T21:11:54;24.10;56.00
51815;DHT22;37874;53.158;6.766;2022-09-09T21:14:20;24.10;56.00
51815;DHT22;37874;53.158;6.766;2022-09-09T21:16:46;24.10;55.90
51815;DHT22;37874;53.158;6.766;2022-09-09T21:19:12;24.10;55.90
51815;DHT22;37874;53.158;6.766;2022-09-09T21:21:37;24.00;55.90
51815;DHT22;37874;53.158;6.766;2022-09-09T21:24:03;24.10;56.00
51815;DHT22;37874;53.158;6.766;2022-09-09T21:26:29;24.10;56.10
51815;DHT22;37874;53.158;6.766;2022-09-09T21:28:55;24.10;56.10
51815;DHT22;37874;53.158;6.766;2022-09-09T21:31:21;24.10;55.80
51815;DHT22;37874;53.158;6.766;2022-09-09T21:33:49;24.20;55.80
51815;DHT22;37874;53.158;6.766;2022-09-09T21:36:15;24.10;55.80
51815;DHT22;37874;53.158;6.766;2022-09-09T21:38:41;24.10;55.80
51815;DHT22;37874;53.158;6.766;2022-09-09T21:41:12;24.10;55.80